sensor_id;sensor_type;location;lat;lon;timestamp;temperature;humidity
13174;DHT22;6652;48.802;9.190;2024-02-28T00:01:15;8.80;99.90
13174;DHT22;6652;48.802;9.190;2024-02-28T00:03:42;8.50;99.90
13174;DHT22;6652;48.802;9.190;2024-02-28T00:06:09;8.50;99.90
13174;DHT22;6652;48.802;9.190;2024-02-28T00:08:38;8.50;99.90
13174;DHT22;6652;48.802;9.190;2024-02-28T00:11:05;8.60;99.90
13174;DHT22;6652;48.802;9.190;2024-02-28T00:13:32;8.50;99.90
13174;DHT22;6652;48.802;9.190;2024-02-28T00:15:58;8.50;99.90
13174;DHT22;6652;48.802;9.190;2024-02-28T00:18:25;8.40;99.90
13174;DHT22;6652;48.802;9.190;2024-02-28T00:20:52;8.40;99.90
13174;DHT22;6652;48.802;9.190;2024-02-28T00:23:20;8.40;99.90
13174;DHT22;6652;48.802;9.190;2024-02-28T00:25:48;8.70;99.90
13174;DHT22;6652;48.802;9.190;2024-02-28T00:28:15;8.50;99.90
13174;DHT22;6652;48.802;9.190;2024-02-28T00:30:42;8.40;99.90
13174;DHT22;6652;48.802;9.190;2024-02-28T00:33:09;8.40;99.90
13174;DHT22;6652;48.802;9.190;2024-02-28T00:35:35;8.40;99.90
13174;DHT22;6652;48.802;9.190;2024-02-28T00:38:03;8.40;99.90
13174;DHT22;6652;48.802;9.190;2024-02-28T00:40:29;8.40;99.90
13174;DHT22;6652;48.802;9.190;2024-02-28T00:42:58;8.20;99.90
13174;DHT22;6652;48.802;9.190;2024-02-28T00:45:25;8.50;99.90
13174;DHT22;6652;48.802;9.190;2024-02-28T00:47:52;8.60;99.90
13174;DHT22;6652;48.802;9.190;2024-02-28T00:50:20;8.40;99.90
13174;DHT22;6652;48.802;9.190;2024-02-28T00:52:47;8.40;99.90
13174;DHT22;6652;48.802;9.190;2024-02-28T00:55:14;8.40;99.90
13174;DHT22;6652;48.802;9.190;2024-02-28T00:57:41;8.30;99.90
13174;DHT22;6652;48.802;9.190;2024-02-28T01:00:10;8.30;99.90
13174;DHT22;6652;48.802;9.190;2024-02-28T01:02:37;8.30;99.90
13174;DHT22;6652;48.802;9.190;2024-02-28T01:05:04;8.40;99.90
13174;DHT22;6652;48.802;9.190;2024-02-28T01:07:31;8.30;99.90
13174;DHT22;6652;48.802;9.190;2024-02-28T01:09:58;8.70;99.90
13174;DHT22;6652;48.802;9.190;2024-02-28T01:12:25;8.30;99.90
13174;DHT22;6652;48.802;9.190;2024-02-28T01:14:52;8.40;99.90
13174;DHT22;6652;48.802;9.190;2024-02-28T01:17:20;8.30;99.90
13174;DHT22;6652;48.802;9.190;2024-02-28T01:19:47;8.30;99.90
13174;DHT22;6652;48.802;9.190;2024-02-28T01:22:14;8.20;99.90
13174;DHT22;6652;48.802;9.190;2024-02-28T01:24:41;8.30;99.90
13174;DHT22;6652;48.802;9.190;2024-02-28T01:27:08;8.30;99.90
13174;DHT22;6652;48.802;9.190;2024-02-28T01:29:34;8.40;99.90
13174;DHT22;6652;48.802;9.190;2024-02-28T01:32:01;8.40;99.90
13174;DHT22;6652;48.802;9.190;2024-02-28T01:34:29;8.20;99.90
13174;DHT22;6652;48.802;9.190;2024-02-28T01:36:56;8.20;99.90
13174;DHT22;6652;48.802;9.190;2024-02-28T01:39:23;8.30;99.90
13174;DHT22;6652;48.802;9.190;2024-02-28T01:41:51;8.30;99.90
13174;DHT22;6652;48.802;9.190;2024-02-28T01:44:19;8.30;99.90
13174;DHT22;6652;48.802;9.190;2024-02-28T01:46:46;8.30;99.90
13174;DHT22;6652;48.802;9.190;2024-02-28T01:49:13;8.30;99.90
13174;DHT22;6652;48.802;9.190;2024-02-28T01:51:42;8.60;99.90
13174;DHT22;6652;48.802;9.190;2024-02-28T01:54:11;8.20;99.90
13174;DHT22;6652;48.802;9.190;2024-02-28T01:56:39;8.20;99.90
13174;DHT22;6652;48.802;9.190;2024-02-28T01:59:07;8.20;99.90
13174;DHT22;6652;48.802;9.190;2024-02-28T02:01:36;8.20;99.90
13174;DHT22;6652;48.802;9.190;2024-02-28T02:04:03;8.20;99.90
13174;DHT22;6652;48.802;9.190;2024-02-28T02:06:30;8.10;99.90
13174;DHT22;6652;48.802;9.190;2024-02-28T02:08:59;8.40;99.90
13174;DHT22;6652;48.802;9.190;2024-02-28T02:11:26;8.20;99.90
13174;DHT22;6652;48.802;9.190;2024-02-28T02:13:53;8.20;99.90
13174;DHT22;6652;48.802;9.190;2024-02-28T02:16:20;8.10;99.90
13174;DHT22;6652;48.802;9.190;2024-02-28T02:18:51;8.10;99.90
13174;DHT22;6652;48.802;9.190;2024-02-28T02:21:20;8.40;99.90
13174;DHT22;6652;48.802;9.190;2024-02-28T02:23:50;8.00;99.90
13174;DHT22;6652;48.802;9.190;2024-02-28T02:26:17;8.20;99.90
13174;DHT22;6652;48.802;9.190;2024-02-28T02:28:44;8.00;99.90
13174;DHT22;6652;48.802;9.190;2024-02-28T02:31:13;8.00;99.90
13174;DHT22;6652;48.802;9.190;2024-02-28T02:33:40;7.90;99.90
13174;DHT22;6652;48.802;9.190;2024-02-28T02:36:07;8.30;99.90
13174;DHT22;6652;48.802;9.190;2024-02-28T02:38:34;8.00;99.90
13174;DHT22;6652;48.802;9.190;2024-02-28T02:41:02;8.00;99.90
13174;DHT22;6652;48.802;9.190;2024-02-28T02:43:29;7.90;99.90
13174;DHT22;6652;48.802;9.190;2024-02-28T02:45:56;7.90;99.90
13174;DHT22;6652;48.802;9.190;2024-02-28T02:48:22;7.90;99.90
13174;DHT22;6652;48.802;9.190;2024-02-28T02:50:49;8.00;99.90
13174;DHT22;6652;48.802;9.190;2024-02-28T02:53:16;8.10;99.90
13174;DHT22;6652;48.802;9.190;2024-02-28T02:55:43;8.00;99.90
13174;DHT22;6652;48.802;9.190;2024-02-28T02:58:11;8.30;99.90
13174;DHT22;6652;48.802;9.190;2024-02-28T03:00:38;8.00;99.90
13174;DHT22;6652;48.802;9.190;2024-02-28T03:03:05;7.90;99.90
13174;DHT22;6652;48.802;9.190;2024-02-28T03:05:32;7.90;99.90
13174;DHT22;6652;48.802;9.190;2024-02-28T03:07:59;7.90;99.90
13174;DHT22;6652;48.802;9.190;2024-02-28T03:10:26;7.90;99.90
13174;DHT22;6652;48.802;9.190;2024-02-28T03:12:52;7.80;99.90
13174;DHT22;6652;48.802;9.190;2024-02-28T03:15:21;7.80;99.90
13174;DHT22;6652;48.802;9.190;2024-02-28T03:17:48;7.80;99.90
13174;DHT22;6652;48.802;9.190;2024-02-28T03:20:15;7.80;99.90
13174;DHT22;6652;48.802;9.190;2024-02-28T03:22:42;7.80;99.90
13174;DHT22;6652;48.802;9.190;2024-02-28T03:25:09;7.80;99.90
13174;DHT22;6652;48.802;9.190;2024-02-28T03:27:36;7.80;99.90
13174;DHT22;6652;48.802;9.190;2024-02-28T03:30:03;7.80;99.90
13174;DHT22;6652;48.802;9.190;2024-02-28T03:32:32;7.70;99.90
13174;DHT22;6652;48.802;9.190;2024-02-28T03:34:59;7.70;99.90
13174;DHT22;6652;48.802;9.190;2024-02-28T03:37:25;7.70;99.90
13174;DHT22;6652;48.802;9.190;2024-02-28T03:39:52;7.70;99.90
13174;DHT22;6652;48.802;9.190;2024-02-28T03:42:19;7.60;99.90
13174;DHT22;6652;48.802;9.190;2024-02-28T03:44:46;7.70;99.90
13174;DHT22;6652;48.802;9.190;2024-02-28T03:47:13;7.70;99.90
13174;DHT22;6652;48.802;9.190;2024-02-28T03:49:41;8.60;99.90
13174;DHT22;6652;48.802;9.190;2024-02-28T03:52:08;7.60;99.90
13174;DHT22;6652;48.802;9.190;2024-02-28T03:54:35;7.60;99.90
13174;DHT22;6652;48.802;9.190;2024-02-28T03:57:02;7.80;99.90
13174;DHT22;6652;48.802;9.190;2024-02-28T03:59:30;7.60;99.90
13174;DHT22;6652;48.802;9.190;2024-02-28T04:01:56;8.10;99.90
13174;DHT22;6652;48.802;9.190;2024-02-28T04:04:23;7.60;99.90
13174;DHT22;6652;48.802;9.190;2024-02-28T04:06:51;7.60;99.90
13174;DHT22;6652;48.802;9.190;2024-02-28T04:09:18;7.60;99.90
13174;DHT22;6652;48.802;9.190;2024-02-28T04:11:46;7.60;99.90
13174;DHT22;6652;48.802;9.190;2024-02-28T04:14:14;7.70;99.90
13174;DHT22;6652;48.802;9.190;2024-02-28T04:16:41;7.50;99.90
13174;DHT22;6652;48.802;9.190;2024-02-28T04:19:10;7.60;99.90
13174;DHT22;6652;48.802;9.190;2024-02-28T04:21:37;7.40;99.90
13174;DHT22;6652;48.802;9.190;2024-02-28T04:24:08;8.50;99.90
13174;DHT22;6652;48.802;9.190;2024-02-28T04:26:36;7.40;99.90
13174;DHT22;6652;48.802;9.190;2024-02-28T04:29:03;7.40;99.90
13174;DHT22;6652;48.802;9.190;2024-02-28T04:31:33;7.40;99.90
13174;DHT22;6652;48.802;9.190;2024-02-28T04:34:00;7.40;99.90
13174;DHT22;6652;48.802;9.190;2024-02-28T04:36:27;7.60;99.90
13174;DHT22;6652;48.802;9.190;2024-02-28T04:38:54;7.50;99.90
13174;DHT22;6652;48.802;9.190;2024-02-28T04:41:22;7.40;99.90
13174;DHT22;6652;48.802;9.190;2024-02-28T04:43:49;7.50;99.90
13174;DHT22;6652;48.802;9.190;2024-02-28T04:46:16;7.30;99.90
13174;DHT22;6652;48.802;9.190;2024-02-28T04:48:43;7.30;99.90
13174;DHT22;6652;48.802;9.190;2024-02-28T04:51:10;7.30;99.90
13174;DHT22;6652;48.802;9.190;2024-02-28T04:53:38;7.30;99.90
13174;DHT22;6652;48.802;9.190;2024-02-28T04:56:06;7.50;99.90
13174;DHT22;6652;48.802;9.190;2024-02-28T04:58:35;7.30;99.90
13174;DHT22;6652;48.802;9.190;2024-02-28T05:01:02;7.40;99.90
13174;DHT22;6652;48.802;9.190;2024-02-28T05:03:29;7.40;99.90
13174;DHT22;6652;48.802;9.190;2024-02-28T05:05:56;7.30;99.90
13174;DHT22;6652;48.802;9.190;2024-02-28T05:08:23;7.30;99.90
13174;DHT22;6652;48.802;9.190;2024-02-28T05:10:50;7.30;99.90
13174;DHT22;6652;48.802;9.190;2024-02-28T05:13:17;7.30;99.90
13174;DHT22;6652;48.802;9.190;2024-02-28T05:15:45;7.20;99.90
13174;DHT22;6652;48.802;9.190;2024-02-28T05:18:12;7.30;99.90
13174;DHT22;6652;48.802;9.190;2024-02-28T05:20:39;7.20;99.90
13174;DHT22;6652;48.802;9.190;2024-02-28T05:23:05;8.50;99.90
13174;DHT22;6652;48.802;9.190;2024-02-28T05:25:32;7.10;99.90
13174;DHT22;6652;48.802;9.190;2024-02-28T05:27:59;7.10;99.90
13174;DHT22;6652;48.802;9.190;2024-02-28T05:30:26;7.20;99.90
13174;DHT22;6652;48.802;9.190;2024-02-28T05:32:54;7.10;99.90
13174;DHT22;6652;48.802;9.190;2024-02-28T05:35:21;7.40;99.90
13174;DHT22;6652;48.802;9.190;2024-02-28T05:37:52;7.00;99.90
13174;DHT22;6652;48.802;9.190;2024-02-28T05:40:19;7.00;99.90
13174;DHT22;6652;48.802;9.190;2024-02-28T05:42:46;7.10;99.90
13174;DHT22;6652;48.802;9.190;2024-02-28T05:45:13;7.10;99.90
13174;DHT22;6652;48.802;9.190;2024-02-28T05:47:40;6.80;99.90
13174;DHT22;6652;48.802;9.190;2024-02-28T05:50:10;6.90;99.90
13174;DHT22;6652;48.802;9.190;2024-02-28T05:52:38;6.90;99.90
13174;DHT22;6652;48.802;9.190;2024-02-28T05:55:05;7.10;99.90
13174;DHT22;6652;48.802;9.190;2024-02-28T05:57:32;7.00;99.90
13174;DHT22;6652;48.802;9.190;2024-02-28T05:59:59;7.20;99.90
13174;DHT22;6652;48.802;9.190;2024-02-28T06:02:26;7.20;99.90
13174;DHT22;6652;48.802;9.190;2024-02-28T06:04:53;7.00;99.90
13174;DHT22;6652;48.802;9.190;2024-02-28T06:07:21;7.00;99.90
13174;DHT22;6652;48.802;9.190;2024-02-28T06:09:56;7.20;99.90
13174;DHT22;6652;48.802;9.190;2024-02-28T06:12:22;7.00;99.90
13174;DHT22;6652;48.802;9.190;2024-02-28T06:18:26;7.00;99.90
13174;DHT22;6652;48.802;9.190;2024-02-28T06:21:06;6.90;99.90
13174;DHT22;6652;48.802;9.190;2024-02-28T06:23:43;6.90;99.90
13174;DHT22;6652;48.802;9.190;2024-02-28T06:26:10;7.00;99.90
13174;DHT22;6652;48.802;9.190;2024-02-28T06:28:42;7.30;99.90
13174;DHT22;6652;48.802;9.190;2024-02-28T06:31:17;7.00;99.90
13174;DHT22;6652;48.802;9.190;2024-02-28T06:33:45;6.90;99.90
13174;DHT22;6652;48.802;9.190;2024-02-28T06:36:12;7.20;99.90
13174;DHT22;6652;48.802;9.190;2024-02-28T06:38:41;7.00;99.90
13174;DHT22;6652;48.802;9.190;2024-02-28T06:41:08;7.70;99.90
13174;DHT22;6652;48.802;9.190;2024-02-28T06:43:35;7.10;99.90
13174;DHT22;6652;48.802;9.190;2024-02-28T06:46:03;7.10;99.90
13174;DHT22;6652;48.802;9.190;2024-02-28T06:48:30;7.10;99.90
13174;DHT22;6652;48.802;9.190;2024-02-28T06:50:57;7.50;99.90
13174;DHT22;6652;48.802;9.190;2024-02-28T06:53:24;7.10;99.90
13174;DHT22;6652;48.802;9.190;2024-02-28T06:55:53;7.10;99.90
13174;DHT22;6652;48.802;9.190;2024-02-28T06:58:20;7.20;99.90
13174;DHT22;6652;48.802;9.190;2024-02-28T07:00:47;8.30;99.90
13174;DHT22;6652;48.802;9.190;2024-02-28T07:03:14;7.20;99.90
13174;DHT22;6652;48.802;9.190;2024-02-28T07:05:41;7.40;99.90
13174;DHT22;6652;48.802;9.190;2024-02-28T07:08:08;7.30;99.90
13174;DHT22;6652;48.802;9.190;2024-02-28T07:10:36;7.80;99.90
13174;DHT22;6652;48.802;9.190;2024-02-28T07:13:09;7.30;99.90
13174;DHT22;6652;48.802;9.190;2024-02-28T07:15:37;8.60;99.90
13174;DHT22;6652;48.802;9.190;2024-02-28T07:18:04;7.30;99.90
13174;DHT22;6652;48.802;9.190;2024-02-28T07:20:31;7.40;99.90
13174;DHT22;6652;48.802;9.190;2024-02-28T07:22:58;7.80;99.90
13174;DHT22;6652;48.802;9.190;2024-02-28T07:25:25;7.40;99.90
13174;DHT22;6652;48.802;9.190;2024-02-28T07:27:51;7.40;99.90
13174;DHT22;6652;48.802;9.190;2024-02-28T07:30:20;7.40;99.90
13174;DHT22;6652;48.802;9.190;2024-02-28T07:32:47;7.40;99.90
13174;DHT22;6652;48.802;9.190;2024-02-28T07:35:14;7.40;99.90
13174;DHT22;6652;48.802;9.190;2024-02-28T07:37:41;7.40;99.90
13174;DHT22;6652;48.802;9.190;2024-02-28T07:40:09;7.40;99.90
13174;DHT22;6652;48.802;9.190;2024-02-28T07:42:36;7.40;99.90
13174;DHT22;6652;48.802;9.190;2024-02-28T07:45:04;7.40;99.90
13174;DHT22;6652;48.802;9.190;2024-02-28T07:47:32;7.50;99.90
13174;DHT22;6652;48.802;9.190;2024-02-28T07:49:59;7.50;99.90
13174;DHT22;6652;48.802;9.190;2024-02-28T07:52:26;7.50;99.90
13174;DHT22;6652;48.802;9.190;2024-02-28T07:54:53;7.50;99.90
13174;DHT22;6652;48.802;9.190;2024-02-28T07:57:19;8.60;99.90
13174;DHT22;6652;48.802;9.190;2024-02-28T07:59:46;7.50;99.90
13174;DHT22;6652;48.802;9.190;2024-02-28T08:02:13;7.60;99.90
13174;DHT22;6652;48.802;9.190;2024-02-28T08:04:41;7.60;99.90
13174;DHT22;6652;48.802;9.190;2024-02-28T08:07:08;7.70;99.90
13174;DHT22;6652;48.802;9.190;2024-02-28T08:09:35;7.90;99.90
13174;DHT22;6652;48.802;9.190;2024-02-28T08:12:02;7.80;99.90
13174;DHT22;6652;48.802;9.190;2024-02-28T08:14:29;7.60;99.90
13174;DHT22;6652;48.802;9.190;2024-02-28T08:16:56;7.70;99.90
13174;DHT22;6652;48.802;9.190;2024-02-28T08:19:23;7.60;99.90
13174;DHT22;6652;48.802;9.190;2024-02-28T08:21:51;7.60;99.90
13174;DHT22;6652;48.802;9.190;2024-02-28T08:24:18;7.60;99.90
13174;DHT22;6652;48.802;9.190;2024-02-28T08:26:45;8.60;99.90
13174;DHT22;6652;48.802;9.190;2024-02-28T08:29:12;7.60;99.90
13174;DHT22;6652;48.802;9.190;2024-02-28T08:31:43;7.60;99.90
13174;DHT22;6652;48.802;9.190;2024-02-28T08:34:10;7.70;99.90
13174;DHT22;6652;48.802;9.190;2024-02-28T08:36:37;7.60;99.90
13174;DHT22;6652;48.802;9.190;2024-02-28T08:39:05;7.60;99.90
13174;DHT22;6652;48.802;9.190;2024-02-28T08:41:35;7.70;99.90
13174;DHT22;6652;48.802;9.190;2024-02-28T08:44:02;8.10;99.90
13174;DHT22;6652;48.802;9.190;2024-02-28T08:46:46;7.60;99.90
13174;DHT22;6652;48.802;9.190;2024-02-28T08:49:13;7.70;99.90
13174;DHT22;6652;48.802;9.190;2024-02-28T08:51:40;8.60;99.90
13174;DHT22;6652;48.802;9.190;2024-02-28T08:54:08;8.00;99.90
13174;DHT22;6652;48.802;9.190;2024-02-28T08:56:35;7.70;99.90
13174;DHT22;6652;48.802;9.190;2024-02-28T08:59:02;8.20;99.90
13174;DHT22;6652;48.802;9.190;2024-02-28T09:01:29;8.10;99.90
13174;DHT22;6652;48.802;9.190;2024-02-28T09:03:56;7.90;99.90
13174;DHT22;6652;48.802;9.190;2024-02-28T09:06:23;7.90;99.90
13174;DHT22;6652;48.802;9.190;2024-02-28T09:08:50;8.00;99.90
13174;DHT22;6652;48.802;9.190;2024-02-28T09:11:18;8.00;99.90
13174;DHT22;6652;48.802;9.190;2024-02-28T09:13:45;8.60;99.90
13174;DHT22;6652;48.802;9.190;2024-02-28T09:16:12;8.10;99.90
13174;DHT22;6652;48.802;9.190;2024-02-28T09:18:39;8.10;99.90
13174;DHT22;6652;48.802;9.190;2024-02-28T09:21:07;8.20;99.90
13174;DHT22;6652;48.802;9.190;2024-02-28T09:23:34;8.10;99.90
13174;DHT22;6652;48.802;9.190;2024-02-28T09:26:03;8.10;99.90
13174;DHT22;6652;48.802;9.190;2024-02-28T09:28:32;8.20;99.90
13174;DHT22;6652;48.802;9.190;2024-02-28T09:30:59;8.20;99.90
13174;DHT22;6652;48.802;9.190;2024-02-28T09:33:26;8.20;99.90
13174;DHT22;6652;48.802;9.190;2024-02-28T09:35:53;8.30;99.90
13174;DHT22;6652;48.802;9.190;2024-02-28T09:38:19;8.40;99.90
13174;DHT22;6652;48.802;9.190;2024-02-28T09:40:48;8.40;99.90
13174;DHT22;6652;48.802;9.190;2024-02-28T09:43:21;8.50;99.90
13174;DHT22;6652;48.802;9.190;2024-02-28T09:45:59;8.50;99.90
13174;DHT22;6652;48.802;9.190;2024-02-28T09:48:27;8.50;99.90
13174;DHT22;6652;48.802;9.190;2024-02-28T09:50:55;9.20;99.90
13174;DHT22;6652;48.802;9.190;2024-02-28T09:53:23;8.70;99.90
13174;DHT22;6652;48.802;9.190;2024-02-28T09:55:50;8.80;99.90
13174;DHT22;6652;48.802;9.190;2024-02-28T09:58:18;8.90;99.90
13174;DHT22;6652;48.802;9.190;2024-02-28T10:00:47;8.90;99.90
13174;DHT22;6652;48.802;9.190;2024-02-28T10:03:17;8.90;99.90
13174;DHT22;6652;48.802;9.190;2024-02-28T10:05:45;9.10;99.90
13174;DHT22;6652;48.802;9.190;2024-02-28T10:08:12;9.70;99.90
13174;DHT22;6652;48.802;9.190;2024-02-28T10:10:45;9.20;99.90
13174;DHT22;6652;48.802;9.190;2024-02-28T10:13:12;9.30;99.90
13174;DHT22;6652;48.802;9.190;2024-02-28T10:15:39;9.30;99.90
13174;DHT22;6652;48.802;9.190;2024-02-28T10:18:06;9.30;99.90
13174;DHT22;6652;48.802;9.190;2024-02-28T10:20:35;9.30;99.90
13174;DHT22;6652;48.802;9.190;2024-02-28T10:23:04;9.90;99.90
13174;DHT22;6652;48.802;9.190;2024-02-28T10:25:31;9.30;99.90
13174;DHT22;6652;48.802;9.190;2024-02-28T10:27:59;9.40;99.90
13174;DHT22;6652;48.802;9.190;2024-02-28T10:30:26;9.60;99.90
13174;DHT22;6652;48.802;9.190;2024-02-28T10:32:53;9.20;99.90
13174;DHT22;6652;48.802;9.190;2024-02-28T10:35:21;9.10;99.90
13174;DHT22;6652;48.802;9.190;2024-02-28T10:37:52;9.60;99.90
13174;DHT22;6652;48.802;9.190;2024-02-28T10:40:22;9.10;99.90
13174;DHT22;6652;48.802;9.190;2024-02-28T10:42:51;9.10;99.90
13174;DHT22;6652;48.802;9.190;2024-02-28T10:45:19;9.10;99.90
13174;DHT22;6652;48.802;9.190;2024-02-28T10:47:47;9.10;99.90
13174;DHT22;6652;48.802;9.190;2024-02-28T10:50:16;9.00;99.90
13174;DHT22;6652;48.802;9.190;2024-02-28T10:52:44;9.80;99.90
13174;DHT22;6652;48.802;9.190;2024-02-28T10:55:14;9.00;99.90
13174;DHT22;6652;48.802;9.190;2024-02-28T10:57:43;9.10;99.90
13174;DHT22;6652;48.802;9.190;2024-02-28T11:00:14;9.10;99.90
13174;DHT22;6652;48.802;9.190;2024-02-28T11:02:42;9.10;99.90
13174;DHT22;6652;48.802;9.190;2024-02-28T11:05:09;9.10;99.90
13174;DHT22;6652;48.802;9.190;2024-02-28T11:07:35;9.30;99.90
13174;DHT22;6652;48.802;9.190;2024-02-28T11:10:08;8.90;99.90
13174;DHT22;6652;48.802;9.190;2024-02-28T11:12:37;8.90;99.90
13174;DHT22;6652;48.802;9.190;2024-02-28T11:15:06;9.10;99.90
13174;DHT22;6652;48.802;9.190;2024-02-28T11:17:42;8.90;99.90
13174;DHT22;6652;48.802;9.190;2024-02-28T11:20:12;8.80;99.90
13174;DHT22;6652;48.802;9.190;2024-02-28T11:22:40;8.80;99.90
13174;DHT22;6652;48.802;9.190;2024-02-28T11:25:07;8.80;99.90
13174;DHT22;6652;48.802;9.190;2024-02-28T11:27:46;8.90;99.90
13174;DHT22;6652;48.802;9.190;2024-02-28T11:30:14;8.90;99.90
13174;DHT22;6652;48.802;9.190;2024-02-28T11:32:41;9.00;99.90
13174;DHT22;6652;48.802;9.190;2024-02-28T11:35:12;9.80;99.90
13174;DHT22;6652;48.802;9.190;2024-02-28T11:37:45;8.80;99.90
13174;DHT22;6652;48.802;9.190;2024-02-28T11:40:12;8.70;99.90
13174;DHT22;6652;48.802;9.190;2024-02-28T11:42:40;8.90;99.90
13174;DHT22;6652;48.802;9.190;2024-02-28T11:45:16;9.30;99.90
13174;DHT22;6652;48.802;9.190;2024-02-28T11:47:44;8.70;99.90
13174;DHT22;6652;48.802;9.190;2024-02-28T11:50:10;8.70;99.90
13174;DHT22;6652;48.802;9.190;2024-02-28T11:52:37;8.60;99.90
13174;DHT22;6652;48.802;9.190;2024-02-28T11:55:04;8.70;99.90
13174;DHT22;6652;48.802;9.190;2024-02-28T11:57:32;8.70;99.90
13174;DHT22;6652;48.802;9.190;2024-02-28T12:00:02;8.70;99.90
13174;DHT22;6652;48.802;9.190;2024-02-28T12:02:32;9.00;99.90
13174;DHT22;6652;48.802;9.190;2024-02-28T12:05:01;8.70;99.90
13174;DHT22;6652;48.802;9.190;2024-02-28T12:07:29;8.70;99.90
13174;DHT22;6652;48.802;9.190;2024-02-28T12:09:56;8.70;99.90
13174;DHT22;6652;48.802;9.190;2024-02-28T12:12:23;8.70;99.90
13174;DHT22;6652;48.802;9.190;2024-02-28T12:14:51;8.70;99.90
13174;DHT22;6652;48.802;9.190;2024-02-28T12:17:18;8.70;99.90
13174;DHT22;6652;48.802;9.190;2024-02-28T12:19:46;8.90;99.90
13174;DHT22;6652;48.802;9.190;2024-02-28T12:22:14;9.40;99.90
13174;DHT22;6652;48.802;9.190;2024-02-28T12:24:42;8.80;99.90
13174;DHT22;6652;48.802;9.190;2024-02-28T12:27:09;8.80;99.90
13174;DHT22;6652;48.802;9.190;2024-02-28T12:29:36;8.90;99.90
13174;DHT22;6652;48.802;9.190;2024-02-28T12:32:03;8.90;99.90
13174;DHT22;6652;48.802;9.190;2024-02-28T12:34:30;9.00;99.90
13174;DHT22;6652;48.802;9.190;2024-02-28T12:36:58;9.00;99.90
13174;DHT22;6652;48.802;9.190;2024-02-28T12:39:26;9.00;99.90
13174;DHT22;6652;48.802;9.190;2024-02-28T12:41:53;9.00;99.90
13174;DHT22;6652;48.802;9.190;2024-02-28T12:44:20;9.00;99.90
13174;DHT22;6652;48.802;9.190;2024-02-28T12:46:47;8.80;99.90
13174;DHT22;6652;48.802;9.190;2024-02-28T12:49:14;8.70;99.90
13174;DHT22;6652;48.802;9.190;2024-02-28T12:51:42;8.70;99.90
13174;DHT22;6652;48.802;9.190;2024-02-28T12:54:12;8.70;99.90
13174;DHT22;6652;48.802;9.190;2024-02-28T12:56:39;8.70;99.90
13174;DHT22;6652;48.802;9.190;2024-02-28T12:59:08;8.70;99.90
13174;DHT22;6652;48.802;9.190;2024-02-28T13:01:35;8.60;99.90
13174;DHT22;6652;48.802;9.190;2024-02-28T13:04:02;8.60;99.90
13174;DHT22;6652;48.802;9.190;2024-02-28T13:06:29;8.60;99.90
13174;DHT22;6652;48.802;9.190;2024-02-28T13:08:56;8.50;99.90
13174;DHT22;6652;48.802;9.190;2024-02-28T13:11:24;8.50;99.90
13174;DHT22;6652;48.802;9.190;2024-02-28T13:13:52;8.60;99.90
13174;DHT22;6652;48.802;9.190;2024-02-28T13:16:19;8.70;99.90
13174;DHT22;6652;48.802;9.190;2024-02-28T13:18:47;8.70;99.90
13174;DHT22;6652;48.802;9.190;2024-02-28T13:21:14;8.70;99.90
13174;DHT22;6652;48.802;9.190;2024-02-28T13:23:41;8.60;99.90
13174;DHT22;6652;48.802;9.190;2024-02-28T13:26:08;8.60;99.90
13174;DHT22;6652;48.802;9.190;2024-02-28T13:28:36;8.70;99.90
13174;DHT22;6652;48.802;9.190;2024-02-28T13:31:03;8.50;99.90
13174;DHT22;6652;48.802;9.190;2024-02-28T13:33:31;8.70;99.90
13174;DHT22;6652;48.802;9.190;2024-02-28T13:35:58;8.50;99.90
13174;DHT22;6652;48.802;9.190;2024-02-28T13:38:24;8.50;99.90
13174;DHT22;6652;48.802;9.190;2024-02-28T13:40:51;8.50;99.90
13174;DHT22;6652;48.802;9.190;2024-02-28T13:43:18;8.50;99.90
13174;DHT22;6652;48.802;9.190;2024-02-28T13:45:48;8.50;99.90
13174;DHT22;6652;48.802;9.190;2024-02-28T13:48:18;8.50;99.90
13174;DHT22;6652;48.802;9.190;2024-02-28T13:50:46;8.50;99.90
13174;DHT22;6652;48.802;9.190;2024-02-28T13:53:14;8.50;99.90
13174;DHT22;6652;48.802;9.190;2024-02-28T13:55:41;8.60;99.90
13174;DHT22;6652;48.802;9.190;2024-02-28T13:58:10;9.10;99.90
13174;DHT22;6652;48.802;9.190;2024-02-28T14:00:38;8.60;99.90
13174;DHT22;6652;48.802;9.190;2024-02-28T14:03:06;8.70;99.90
13174;DHT22;6652;48.802;9.190;2024-02-28T14:05:34;8.60;99.90
13174;DHT22;6652;48.802;9.190;2024-02-28T14:08:00;8.70;99.90
13174;DHT22;6652;48.802;9.190;2024-02-28T14:10:29;8.60;99.90
13174;DHT22;6652;48.802;9.190;2024-02-28T14:12:56;8.60;99.90
13174;DHT22;6652;48.802;9.190;2024-02-28T14:15:23;8.50;99.90
13174;DHT22;6652;48.802;9.190;2024-02-28T14:17:50;8.40;99.90
13174;DHT22;6652;48.802;9.190;2024-02-28T14:20:19;8.40;99.90
13174;DHT22;6652;48.802;9.190;2024-02-28T14:22:46;8.30;99.90
13174;DHT22;6652;48.802;9.190;2024-02-28T14:25:14;8.20;99.90
13174;DHT22;6652;48.802;9.190;2024-02-28T14:27:44;8.20;99.90
13174;DHT22;6652;48.802;9.190;2024-02-28T14:30:12;8.20;99.90
13174;DHT22;6652;48.802;9.190;2024-02-28T14:32:40;8.30;99.90
13174;DHT22;6652;48.802;9.190;2024-02-28T14:35:08;8.30;99.90
13174;DHT22;6652;48.802;9.190;2024-02-28T14:37:38;8.40;99.90
13174;DHT22;6652;48.802;9.190;2024-02-28T14:40:08;8.40;99.90
13174;DHT22;6652;48.802;9.190;2024-02-28T14:42:36;8.40;99.90
13174;DHT22;6652;48.802;9.190;2024-02-28T14:45:04;8.40;99.90
13174;DHT22;6652;48.802;9.190;2024-02-28T14:47:31;8.40;99.90
13174;DHT22;6652;48.802;9.190;2024-02-28T14:49:59;8.40;99.90
13174;DHT22;6652;48.802;9.190;2024-02-28T14:52:27;8.40;99.90
13174;DHT22;6652;48.802;9.190;2024-02-28T14:54:55;8.50;99.90
13174;DHT22;6652;48.802;9.190;2024-02-28T14:57:23;8.50;99.90
13174;DHT22;6652;48.802;9.190;2024-02-28T14:59:50;8.50;99.90
13174;DHT22;6652;48.802;9.190;2024-02-28T15:02:17;8.40;99.90
13174;DHT22;6652;48.802;9.190;2024-02-28T15:04:44;8.40;99.90
13174;DHT22;6652;48.802;9.190;2024-02-28T15:07:11;8.20;99.90
13174;DHT22;6652;48.802;9.190;2024-02-28T15:09:38;8.10;99.90
13174;DHT22;6652;48.802;9.190;2024-02-28T15:12:08;8.00;99.90
13174;DHT22;6652;48.802;9.190;2024-02-28T15:14:37;8.00;99.90
13174;DHT22;6652;48.802;9.190;2024-02-28T15:17:04;8.80;99.90
13174;DHT22;6652;48.802;9.190;2024-02-28T15:19:31;8.10;99.90
13174;DHT22;6652;48.802;9.190;2024-02-28T15:21:58;9.10;99.90
13174;DHT22;6652;48.802;9.190;2024-02-28T15:24:25;8.30;99.90
13174;DHT22;6652;48.802;9.190;2024-02-28T15:26:52;8.00;99.90
13174;DHT22;6652;48.802;9.190;2024-02-28T15:29:21;8.00;99.90
13174;DHT22;6652;48.802;9.190;2024-02-28T15:31:48;8.40;99.90
13174;DHT22;6652;48.802;9.190;2024-02-28T15:34:15;8.00;99.90
13174;DHT22;6652;48.802;9.190;2024-02-28T15:36:42;8.10;99.90
13174;DHT22;6652;48.802;9.190;2024-02-28T15:39:09;8.10;99.90
13174;DHT22;6652;48.802;9.190;2024-02-28T15:41:36;8.10;99.90
13174;DHT22;6652;48.802;9.190;2024-02-28T15:44:03;8.20;99.90
13174;DHT22;6652;48.802;9.190;2024-02-28T15:46:32;8.20;99.90
13174;DHT22;6652;48.802;9.190;2024-02-28T15:49:00;8.30;99.90
13174;DHT22;6652;48.802;9.190;2024-02-28T15:51:27;8.70;99.90
13174;DHT22;6652;48.802;9.190;2024-02-28T15:53:54;8.40;99.90
13174;DHT22;6652;48.802;9.190;2024-02-28T15:56:21;8.20;99.90
13174;DHT22;6652;48.802;9.190;2024-02-28T15:58:48;8.20;99.90
13174;DHT22;6652;48.802;9.190;2024-02-28T16:01:15;8.20;99.90
13174;DHT22;6652;48.802;9.190;2024-02-28T16:03:44;8.10;99.90
13174;DHT22;6652;48.802;9.190;2024-02-28T16:06:11;8.20;99.90
13174;DHT22;6652;48.802;9.190;2024-02-28T16:08:39;9.40;99.90